createdAt,value
2019-03-31T00:01:54.825Z,13.37
2019-03-31T00:04:25.529Z,13.70
2019-03-31T00:06:56.282Z,14.97
2019-03-31T00:09:27.033Z,13.50
2019-03-31T00:11:57.833Z,14.00
2019-03-31T00:14:28.569Z,14.00
2019-03-31T00:16:59.388Z,13.67
2019-03-31T00:19:30.175Z,14.70
2019-03-31T00:22:01.001Z,14.07
2019-03-31T00:24:31.739Z,14.47
2019-03-31T00:27:02.546Z,13.83
2019-03-31T00:29:33.275Z,14.07
2019-03-31T00:32:04.111Z,13.90
2019-03-31T00:34:34.817Z,13.30
2019-03-31T00:37:07.673Z,13.20
2019-03-31T00:39:38.041Z,12.23
2019-03-31T00:42:08.844Z,11.90
2019-03-31T00:44:39.716Z,12.00
2019-03-31T00:47:10.554Z,11.87
2019-03-31T00:49:41.377Z,12.17
2019-03-31T00:52:12.097Z,11.70
2019-03-31T00:54:42.824Z,11.53
2019-03-31T00:57:13.643Z,11.53
2019-03-31T00:59:44.412Z,12.03
2019-03-31T01:02:18.700Z,11.60
2019-03-31T01:04:49.612Z,12.67
2019-03-31T01:07:21.425Z,11.63
2019-03-31T01:09:53.545Z,11.13
2019-03-31T01:12:25.913Z,12.63
2019-03-31T01:14:56.645Z,12.63
2019-03-31T01:17:27.684Z,12.03
2019-03-31T01:19:59.757Z,12.17
2019-03-31T01:22:30.581Z,12.93
2019-03-31T01:25:01.490Z,13.27
2019-03-31T01:27:32.340Z,13.17
2019-03-31T01:30:03.140Z,13.30
2019-03-31T01:32:34.129Z,13.80
2019-03-31T01:35:05.719Z,12.90
2019-03-31T01:37:36.460Z,13.57
2019-03-31T01:40:07.477Z,14.67
2019-03-31T01:42:38.188Z,13.43
2019-03-31T01:45:09.538Z,13.63
2019-03-31T01:47:40.284Z,13.63
2019-03-31T01:50:12.425Z,14.03
2019-03-31T01:52:43.157Z,13.43
2019-03-31T01:55:13.957Z,13.00
2019-03-31T01:57:44.711Z,13.93
2019-03-31T02:00:29.532Z,13.93
2019-03-31T02:03:00.336Z,13.83
2019-03-31T02:05:31.176Z,13.23
2019-03-31T02:08:01.909Z,13.73
2019-03-31T02:10:32.622Z,14.27
2019-03-31T02:13:03.421Z,13.50
2019-03-31T02:15:34.196Z,13.90
2019-03-31T02:18:05.102Z,13.20
2019-03-31T02:20:35.853Z,13.40
2019-03-31T02:23:06.604Z,13.20
2019-03-31T02:25:37.380Z,14.20
2019-03-31T02:28:08.102Z,13.77
2019-03-31T02:30:38.897Z,13.43
2019-03-31T02:33:09.710Z,12.43
2019-03-31T02:35:40.472Z,13.33
2019-03-31T02:38:11.197Z,12.57
2019-03-31T02:40:41.980Z,13.97
2019-03-31T02:43:12.709Z,12.80
2019-03-31T02:45:43.586Z,14.20
2019-03-31T02:48:14.304Z,15.93
2019-03-31T02:50:51.836Z,13.87
2019-03-31T02:53:22.974Z,14.90
2019-03-31T02:55:55.970Z,13.23
2019-03-31T02:58:27.248Z,13.00
2019-03-31T03:00:58.585Z,14.60
2019-03-31T03:03:29.811Z,13.37
2019-03-31T03:06:02.992Z,14.40
2019-03-31T03:08:36.493Z,13.07
2019-03-31T03:11:08.482Z,13.57
2019-03-31T03:13:41.015Z,13.83
2019-03-31T03:16:19.201Z,13.17
2019-03-31T03:18:50.132Z,13.60
2019-03-31T03:21:24.161Z,14.23
2019-03-31T03:23:52.977Z,13.97
2019-03-31T03:26:23.775Z,13.80
2019-03-31T03:28:54.568Z,12.63
2019-03-31T03:31:25.340Z,13.17
2019-03-31T03:33:56.135Z,13.97
2019-03-31T03:36:26.919Z,12.53
2019-03-31T03:38:57.672Z,13.40
2019-03-31T03:41:28.415Z,12.50
2019-03-31T03:44:02.310Z,13.83
2019-03-31T03:46:31.675Z,13.40
2019-03-31T03:49:02.437Z,12.87
2019-03-31T03:51:33.195Z,12.50
2019-03-31T03:54:03.928Z,13.50
2019-03-31T03:56:34.643Z,12.97
2019-03-31T03:59:05.367Z,13.07
2019-03-31T04:01:36.148Z,12.60
2019-03-31T04:04:06.860Z,12.43
2019-03-31T04:06:37.607Z,11.60
2019-03-31T04:09:08.413Z,12.17
2019-03-31T04:11:39.219Z,12.00
2019-03-31T04:14:10.032Z,12.17
2019-03-31T04:16:40.754Z,12.47
2019-03-31T04:19:11.832Z,13.07
2019-03-31T04:21:42.582Z,13.00
2019-03-31T04:24:13.444Z,13.40
2019-03-31T04:26:44.226Z,13.63
2019-03-31T04:29:14.994Z,13.13
2019-03-31T04:31:45.848Z,11.83
2019-03-31T04:34:16.667Z,12.13
2019-03-31T04:36:47.416Z,12.53
2019-03-31T04:39:18.191Z,12.70
2019-03-31T04:41:48.937Z,12.50
2019-03-31T04:44:19.731Z,13.00
2019-03-31T04:46:50.541Z,13.33
2019-03-31T04:49:21.238Z,13.13
2019-03-31T04:51:51.976Z,13.03
2019-03-31T04:54:22.776Z,12.97
2019-03-31T04:56:53.555Z,13.70
2019-03-31T04:59:24.308Z,12.80
2019-03-31T05:01:55.108Z,12.27
2019-03-31T05:04:25.844Z,13.17
2019-03-31T05:06:56.547Z,13.60
2019-03-31T05:09:27.280Z,13.07
2019-03-31T05:11:58.012Z,13.00
2019-03-31T05:14:28.895Z,12.73
2019-03-31T05:16:59.604Z,12.90
2019-03-31T05:19:30.347Z,13.17
2019-03-31T05:22:01.062Z,12.37
2019-03-31T05:24:31.786Z,12.87
2019-03-31T05:27:02.491Z,13.17
2019-03-31T05:29:33.308Z,13.20
2019-03-31T05:32:04.007Z,13.00
2019-03-31T05:34:34.732Z,13.27
2019-03-31T05:37:05.503Z,12.83
2019-03-31T05:39:36.225Z,13.43
2019-03-31T05:42:06.943Z,12.90
2019-03-31T05:44:37.680Z,12.20
2019-03-31T05:47:08.388Z,12.93
2019-03-31T05:49:39.144Z,13.70
2019-03-31T05:52:09.901Z,13.33
2019-03-31T05:54:40.609Z,12.63
2019-03-31T05:57:11.404Z,13.07
2019-03-31T05:59:42.194Z,14.20
2019-03-31T06:02:12.904Z,13.57
2019-03-31T06:04:43.628Z,14.03
2019-03-31T06:07:14.341Z,13.27
2019-03-31T06:09:45.092Z,12.53
2019-03-31T06:12:15.817Z,12.77
2019-03-31T06:14:46.629Z,13.30
2019-03-31T06:17:17.356Z,13.40
2019-03-31T06:19:48.165Z,13.97
2019-03-31T06:22:18.876Z,13.27
2019-03-31T06:24:49.615Z,12.53
2019-03-31T06:27:20.407Z,13.10
2019-03-31T06:29:51.140Z,12.93
2019-03-31T06:32:21.852Z,14.30
2019-03-31T06:34:52.616Z,13.17
2019-03-31T06:37:23.364Z,12.63
2019-03-31T06:39:54.160Z,13.03
2019-03-31T06:42:24.997Z,13.73
2019-03-31T06:44:55.739Z,13.40
2019-03-31T06:47:26.520Z,13.70
2019-03-31T06:49:57.243Z,12.97
2019-03-31T06:52:28.051Z,12.83
2019-03-31T06:54:58.773Z,13.50
2019-03-31T06:57:29.485Z,13.40
2019-03-31T07:00:00.418Z,12.83
2019-03-31T07:02:31.112Z,12.80
2019-03-31T07:05:02.132Z,14.43
2019-03-31T07:07:32.877Z,13.10
2019-03-31T07:10:03.781Z,13.97
2019-03-31T07:12:34.623Z,13.03
2019-03-31T07:15:06.554Z,14.00
2019-03-31T07:17:37.256Z,13.87
2019-03-31T07:20:09.442Z,13.20
2019-03-31T07:22:40.189Z,12.97
2019-03-31T07:25:11.691Z,13.70
2019-03-31T07:27:42.437Z,13.50
2019-03-31T07:30:14.615Z,13.67
2019-03-31T07:32:45.323Z,12.97
2019-03-31T07:35:18.602Z,13.00
2019-03-31T07:37:48.835Z,13.03
2019-03-31T07:40:20.422Z,12.97
2019-03-31T07:42:51.524Z,13.87
2019-03-31T07:45:22.400Z,14.27
2019-03-31T07:47:53.207Z,13.83
2019-03-31T07:50:23.945Z,14.27
2019-03-31T07:52:54.653Z,13.53
2019-03-31T07:55:25.388Z,13.43
2019-03-31T07:57:56.273Z,13.73
2019-03-31T08:00:27.178Z,13.60
2019-03-31T08:03:00.448Z,13.47
2019-03-31T08:05:33.434Z,13.27
2019-03-31T08:08:04.106Z,13.87
2019-03-31T08:10:34.986Z,13.40
2019-03-31T08:13:05.797Z,12.77
2019-03-31T08:15:36.133Z,12.73
2019-03-31T08:18:06.528Z,13.60
2019-03-31T08:20:39.108Z,13.53
2019-03-31T08:23:10.052Z,13.07
2019-03-31T08:25:41.124Z,12.83
2019-03-31T08:28:11.915Z,13.63
2019-03-31T08:30:43.198Z,11.70
2019-03-31T08:33:14.088Z,12.43
2019-03-31T08:35:47.667Z,12.17
2019-03-31T08:38:17.938Z,12.43
2019-03-31T08:40:48.731Z,12.20
2019-03-31T08:43:19.516Z,12.10
2019-03-31T08:45:50.364Z,12.50
2019-03-31T08:48:21.139Z,12.40
2019-03-31T08:50:52.037Z,13.50
2019-03-31T08:53:22.933Z,13.47
2019-03-31T08:55:53.776Z,13.53
2019-03-31T08:58:24.553Z,12.13
2019-03-31T09:00:58.981Z,12.60
2019-03-31T09:03:29.835Z,12.57
2019-03-31T09:06:02.546Z,13.47
2019-03-31T09:08:33.584Z,13.50
2019-03-31T09:11:04.486Z,13.40
2019-03-31T09:13:35.321Z,13.60
2019-03-31T09:16:06.200Z,13.57
2019-03-31T09:18:37.025Z,14.80
2019-03-31T09:21:07.884Z,13.87
2019-03-31T09:23:38.701Z,12.93
2019-03-31T09:26:09.663Z,13.77
2019-03-31T09:28:40.516Z,14.57
2019-03-31T09:31:11.397Z,14.27
2019-03-31T09:33:42.278Z,14.13
2019-03-31T09:36:16.291Z,14.73
2019-03-31T09:38:45.616Z,14.70
2019-03-31T09:41:16.496Z,14.07
2019-03-31T09:43:47.336Z,14.73
2019-03-31T09:46:18.150Z,15.30
2019-03-31T09:48:48.928Z,15.70
2019-03-31T09:51:19.775Z,16.43
2019-03-31T09:53:50.601Z,17.03
2019-03-31T09:56:21.456Z,15.77
2019-03-31T09:58:52.204Z,15.30
2019-03-31T10:01:24.274Z,16.70
2019-03-31T10:03:55.044Z,17.70
2019-03-31T10:06:30.463Z,16.70
2019-03-31T10:08:58.765Z,16.40
2019-03-31T10:11:29.557Z,16.97
2019-03-31T10:14:00.454Z,18.27
2019-03-31T10:16:31.367Z,18.00
2019-03-31T10:19:02.192Z,18.33
2019-03-31T10:21:32.894Z,17.93
2019-03-31T10:24:03.669Z,17.97
2019-03-31T10:26:34.442Z,17.90
2019-03-31T10:29:05.463Z,18.07
2019-03-31T10:31:36.514Z,17.73
2019-03-31T10:34:07.931Z,17.63
2019-03-31T10:36:44.587Z,17.87
2019-03-31T10:39:11.969Z,18.07
2019-03-31T10:41:42.794Z,17.30
2019-03-31T10:44:44.284Z,18.07
2019-03-31T10:47:15.260Z,18.07
2019-03-31T10:49:46.127Z,19.37
2019-03-31T10:52:16.968Z,19.00
2019-03-31T10:54:47.789Z,19.63
2019-03-31T10:57:18.630Z,19.47
2019-03-31T10:59:49.369Z,19.10
2019-03-31T11:02:23.503Z,22.67
2019-03-31T11:04:54.364Z,18.30
2019-03-31T11:07:25.163Z,18.30
2019-03-31T11:09:56.111Z,17.47
2019-03-31T11:12:26.999Z,17.97
2019-03-31T11:14:57.825Z,18.00
2019-03-31T11:17:28.686Z,17.70
2019-03-31T11:20:00.781Z,18.90
2019-03-31T11:22:45.250Z,17.67
2019-03-31T11:25:21.247Z,18.20
2019-03-31T11:27:48.656Z,18.43
2019-03-31T11:30:19.510Z,16.63
2019-03-31T11:32:50.384Z,16.57
2019-03-31T11:35:21.305Z,17.03
2019-03-31T11:37:52.265Z,17.13
2019-03-31T11:40:23.908Z,17.23
2019-03-31T11:42:54.814Z,16.30
2019-03-31T11:45:25.678Z,15.57
2019-03-31T11:47:56.516Z,15.23
2019-03-31T11:50:27.291Z,15.43
2019-03-31T11:52:58.046Z,14.70
2019-03-31T11:55:28.857Z,11.33
2019-03-31T11:57:59.749Z,10.57
2019-03-31T12:00:33.104Z,8.40
2019-03-31T12:03:03.988Z,9.57
2019-03-31T12:05:34.895Z,9.43
2019-03-31T12:08:05.737Z,10.30
2019-03-31T12:10:36.885Z,11.53
2019-03-31T12:13:07.725Z,10.93
2019-03-31T12:15:39.024Z,9.70
2019-03-31T12:18:09.971Z,6.37
2019-03-31T12:20:41.503Z,7.07
2019-03-31T12:23:12.413Z,7.20
2019-03-31T12:25:43.330Z,8.03
2019-03-31T12:28:14.251Z,8.50
2019-03-31T12:30:45.367Z,10.00
2019-03-31T12:33:16.707Z,9.57
2019-03-31T12:35:47.753Z,9.50
2019-03-31T12:38:21.782Z,10.43
2019-03-31T12:40:52.201Z,11.63
2019-03-31T12:43:23.092Z,9.20
2019-03-31T12:45:54.052Z,8.57
2019-03-31T12:48:24.998Z,9.80
2019-03-31T12:50:55.929Z,9.80
2019-03-31T12:53:43.571Z,10.27
2019-03-31T12:56:14.388Z,9.83
2019-03-31T12:58:45.281Z,9.87
2019-03-31T13:01:16.065Z,9.90
2019-03-31T13:03:46.892Z,8.60
2019-03-31T13:06:17.695Z,9.27
2019-03-31T13:08:48.566Z,10.57
2019-03-31T13:11:19.469Z,10.47
2019-03-31T13:13:50.335Z,8.97
2019-03-31T13:16:21.067Z,7.97
2019-03-31T13:18:51.920Z,8.07
2019-03-31T13:21:22.772Z,8.13
2019-03-31T13:23:53.600Z,7.47
2019-03-31T13:26:24.425Z,7.80
2019-03-31T13:28:55.233Z,7.33
2019-03-31T13:31:26.138Z,7.30
2019-03-31T13:33:56.893Z,7.93
2019-03-31T13:36:27.744Z,6.47
2019-03-31T13:38:58.643Z,7.73
2019-03-31T13:41:29.496Z,9.63
2019-03-31T13:44:00.342Z,8.50
2019-03-31T13:46:31.382Z,6.13
2019-03-31T13:49:02.220Z,5.30
2019-03-31T13:51:33.072Z,5.60
2019-03-31T13:54:03.901Z,5.60
2019-03-31T13:56:35.146Z,5.30
2019-03-31T13:59:09.124Z,4.63
2019-03-31T14:01:38.955Z,5.37
2019-03-31T14:04:09.822Z,4.70
2019-03-31T14:06:40.633Z,4.37
2019-03-31T14:09:11.498Z,5.03
2019-03-31T14:11:42.371Z,4.70
2019-03-31T14:14:13.289Z,4.03
2019-03-31T14:16:44.133Z,4.80
2019-03-31T14:19:14.924Z,4.90
2019-03-31T14:21:45.754Z,4.00
2019-03-31T14:24:16.553Z,5.00
2019-03-31T14:26:47.829Z,4.97
2019-03-31T14:29:18.882Z,4.20
2019-03-31T14:31:52.011Z,4.03
2019-03-31T14:34:22.237Z,4.50
2019-03-31T14:36:53.052Z,4.37
2019-03-31T14:39:23.901Z,4.30
2019-03-31T14:41:54.696Z,4.30
2019-03-31T14:44:25.578Z,4.07
2019-03-31T14:46:56.408Z,4.57
2019-03-31T14:49:27.159Z,4.07
2019-03-31T14:52:01.089Z,4.57
2019-03-31T14:54:30.415Z,4.40
2019-03-31T14:57:04.094Z,4.33
2019-03-31T14:59:34.961Z,3.83
2019-03-31T15:02:05.792Z,4.03
2019-03-31T15:04:36.632Z,3.53
2019-03-31T15:07:07.540Z,4.03
2019-03-31T15:09:38.366Z,3.83
2019-03-31T15:12:09.211Z,4.23
2019-03-31T15:14:40.070Z,3.90
2019-03-31T15:17:10.807Z,3.47
2019-03-31T15:19:41.625Z,3.37
2019-03-31T15:22:12.475Z,3.90
2019-03-31T15:24:43.305Z,3.67
2019-03-31T15:27:14.177Z,3.60
2019-03-31T15:29:45.025Z,3.50
2019-03-31T15:32:15.851Z,3.13
2019-03-31T15:34:46.700Z,3.20
2019-03-31T15:37:17.570Z,3.47
2019-03-31T15:39:48.398Z,3.60
2019-03-31T15:42:19.248Z,3.90
2019-03-31T15:44:50.058Z,3.47
2019-03-31T15:47:20.875Z,3.80
2019-03-31T15:49:51.676Z,3.70
2019-03-31T15:52:22.539Z,3.33
2019-03-31T15:54:53.305Z,3.50
2019-03-31T15:57:24.057Z,3.40
2019-03-31T15:59:54.932Z,3.30
2019-03-31T16:02:27.068Z,3.60
2019-03-31T16:04:57.876Z,3.10
2019-03-31T16:07:28.641Z,3.27
2019-03-31T16:09:58.935Z,3.57
2019-03-31T16:12:29.287Z,2.90
2019-03-31T16:14:59.655Z,3.00
2019-03-31T16:17:30.036Z,3.10
2019-03-31T16:20:00.360Z,3.20
2019-03-31T16:22:30.711Z,3.40
2019-03-31T16:25:01.925Z,2.63
2019-03-31T16:27:32.194Z,3.03
2019-03-31T16:30:02.450Z,3.13
2019-03-31T16:32:32.747Z,3.00
2019-03-31T16:35:03.135Z,3.03
2019-03-31T16:37:33.476Z,3.80
2019-03-31T16:40:03.903Z,3.60
2019-03-31T16:42:34.163Z,3.30
2019-03-31T16:45:04.776Z,3.37
2019-03-31T16:47:35.057Z,3.50
2019-03-31T16:50:05.623Z,3.53
2019-03-31T16:52:35.920Z,3.10
2019-03-31T16:55:06.504Z,3.40
2019-03-31T16:57:36.753Z,3.47
2019-03-31T17:00:08.277Z,3.07
2019-03-31T17:02:38.560Z,3.13
2019-03-31T17:05:21.245Z,3.13
2019-03-31T17:07:41.045Z,3.17
2019-03-31T17:10:11.836Z,3.40
2019-03-31T17:12:42.120Z,3.20
2019-03-31T17:15:12.758Z,3.27
2019-03-31T17:17:43.054Z,3.10
2019-03-31T17:20:13.558Z,3.27
2019-03-31T17:22:43.841Z,3.43
2019-03-31T17:25:14.128Z,3.77
2019-03-31T17:27:44.412Z,3.23
2019-03-31T17:30:15.212Z,3.70
2019-03-31T17:32:45.470Z,3.00
2019-03-31T17:35:15.708Z,3.50
2019-03-31T17:37:45.974Z,3.40
2019-03-31T17:40:16.266Z,3.50
2019-03-31T17:42:46.538Z,3.90
2019-03-31T17:45:17.442Z,3.40
2019-03-31T17:47:47.812Z,4.07
2019-03-31T17:50:18.938Z,4.40
2019-03-31T17:52:49.326Z,4.43
2019-03-31T17:55:19.634Z,4.27
2019-03-31T17:57:49.987Z,4.53
2019-03-31T18:00:20.291Z,4.47
2019-03-31T18:02:50.610Z,4.87
2019-03-31T18:05:20.985Z,5.43
2019-03-31T18:07:51.367Z,5.70
2019-03-31T18:10:21.770Z,5.47
2019-03-31T18:12:52.157Z,6.07
2019-03-31T18:15:22.562Z,5.37
2019-03-31T18:17:52.774Z,5.40
2019-03-31T18:20:23.084Z,5.90
2019-03-31T18:22:53.421Z,5.87
2019-03-31T18:25:23.718Z,6.07
2019-03-31T18:27:54.053Z,6.10
2019-03-31T18:30:24.334Z,5.07
2019-03-31T18:32:54.753Z,5.20
2019-03-31T18:35:25.096Z,5.73
2019-03-31T18:37:55.435Z,4.90
2019-03-31T18:40:34.796Z,4.50
2019-03-31T18:42:57.730Z,4.70
2019-03-31T18:45:28.069Z,4.93
2019-03-31T18:48:01.123Z,4.70
2019-03-31T18:50:30.436Z,4.50
2019-03-31T18:53:00.919Z,5.20
2019-03-31T18:55:42.556Z,6.47
2019-03-31T18:58:22.088Z,8.40
2019-03-31T19:01:20.177Z,6.50
2019-03-31T19:04:08.232Z,5.23
2019-03-31T19:07:03.520Z,4.40
2019-03-31T19:09:58.942Z,5.23
2019-03-31T19:12:43.919Z,5.40
2019-03-31T19:15:33.163Z,5.10
2019-03-31T19:18:17.132Z,5.03
2019-03-31T19:21:18.303Z,5.30
2019-03-31T19:24:00.884Z,4.97
2019-03-31T19:26:48.507Z,5.30
2019-03-31T19:29:35.592Z,5.10
2019-03-31T19:32:24.830Z,5.57
2019-03-31T19:35:02.797Z,4.70
2019-03-31T19:37:50.620Z,5.50
2019-03-31T19:40:31.240Z,5.67
2019-03-31T19:43:23.537Z,5.50
2019-03-31T19:46:11.435Z,5.30
2019-03-31T19:48:59.316Z,5.80
2019-03-31T19:52:06.852Z,5.30
2019-03-31T19:55:05.306Z,5.83
2019-03-31T19:58:00.628Z,6.00
2019-03-31T20:00:53.025Z,5.77
2019-03-31T20:03:31.105Z,5.87
2019-03-31T20:06:12.814Z,6.20
2019-03-31T20:08:52.487Z,6.00
2019-03-31T20:11:39.132Z,6.23
2019-03-31T20:14:18.014Z,6.57
2019-03-31T20:17:04.130Z,6.73
2019-03-31T20:19:52.861Z,6.93
2019-03-31T20:22:40.497Z,7.53
2019-03-31T20:25:35.526Z,6.73
2019-03-31T20:28:33.953Z,8.23
2019-03-31T20:31:25.300Z,8.17
2019-03-31T20:34:16.854Z,8.17
2019-03-31T20:37:08.867Z,8.23
2019-03-31T20:39:56.528Z,10.77
2019-03-31T20:42:37.096Z,9.00
2019-03-31T20:45:07.409Z,9.07
2019-03-31T20:47:37.707Z,8.53
2019-03-31T20:50:08.448Z,9.13
2019-03-31T20:52:38.861Z,9.27
2019-03-31T20:55:16.138Z,10.47
2019-03-31T20:57:41.114Z,10.47
2019-03-31T21:00:11.955Z,10.13
2019-03-31T21:02:42.330Z,10.67
2019-03-31T21:05:12.630Z,10.17
2019-03-31T21:07:42.885Z,10.03
2019-03-31T21:10:13.225Z,10.87
2019-03-31T21:12:43.526Z,10.20
2019-03-31T21:15:13.789Z,10.07
2019-03-31T21:17:44.137Z,10.90
2019-03-31T21:20:14.370Z,12.07
2019-03-31T21:22:44.668Z,11.17
2019-03-31T21:25:15.006Z,11.73
2019-03-31T21:27:45.275Z,11.60
2019-03-31T21:30:15.736Z,12.77
2019-03-31T21:32:46.042Z,11.80
2019-03-31T21:35:16.353Z,11.63
2019-03-31T21:37:46.632Z,13.03
2019-03-31T21:40:16.937Z,13.97
2019-03-31T21:42:47.244Z,13.97
2019-03-31T21:45:17.590Z,14.57
2019-03-31T21:47:47.786Z,14.37
2019-03-31T21:50:18.012Z,15.10
2019-03-31T21:52:48.217Z,15.53
2019-03-31T21:55:18.477Z,14.80
2019-03-31T21:57:48.740Z,16.93
2019-03-31T22:00:21.631Z,15.67
2019-03-31T22:02:51.945Z,15.63
2019-03-31T22:05:22.172Z,15.40
2019-03-31T22:07:52.456Z,16.77
2019-03-31T22:10:22.742Z,17.50
2019-03-31T22:12:52.997Z,16.77
2019-03-31T22:15:23.312Z,17.13
2019-03-31T22:17:53.580Z,18.93
2019-03-31T22:20:23.866Z,18.93
2019-03-31T22:22:54.308Z,20.10
2019-03-31T22:25:24.607Z,18.80
2019-03-31T22:27:54.792Z,19.13
2019-03-31T22:30:24.986Z,19.70
2019-03-31T22:32:55.203Z,19.50
2019-03-31T22:35:25.476Z,20.97
2019-03-31T22:37:55.743Z,21.97
2019-03-31T22:40:25.973Z,20.63
2019-03-31T22:42:56.495Z,22.67
2019-03-31T22:45:26.701Z,23.53
2019-03-31T22:47:56.894Z,23.17
2019-03-31T22:50:27.273Z,24.80
2019-03-31T22:52:57.515Z,25.30
2019-03-31T22:55:27.781Z,25.03
2019-03-31T22:57:58.012Z,26.00
2019-03-31T23:00:28.725Z,26.70
2019-03-31T23:02:58.994Z,27.67
2019-03-31T23:05:29.212Z,25.97
2019-03-31T23:07:59.394Z,26.37
2019-03-31T23:10:29.608Z,27.23
2019-03-31T23:12:59.865Z,26.83
2019-03-31T23:15:30.212Z,27.40
2019-03-31T23:18:00.386Z,27.40
2019-03-31T23:20:30.564Z,28.20
2019-03-31T23:23:00.744Z,28.10
2019-03-31T23:25:30.956Z,27.83
2019-03-31T23:28:01.112Z,27.80
2019-03-31T23:30:31.388Z,29.00
2019-03-31T23:33:01.678Z,28.47
2019-03-31T23:35:31.917Z,29.57
2019-03-31T23:38:02.075Z,31.63
2019-03-31T23:40:32.284Z,31.47
2019-03-31T23:43:02.463Z,29.53
2019-03-31T23:45:33.364Z,31.13
2019-03-31T23:48:03.531Z,31.63
2019-03-31T23:50:33.802Z,29.73
2019-03-31T23:53:04.257Z,31.27
2019-03-31T23:55:34.460Z,30.30
2019-03-31T23:58:04.682Z,31.13
